Time;durP1;ratioP1;P1;durP2;ratioP2;P2;SDS_P1;SDS_P2;PMS_P1;PMS_P2;Temp;Humidity;BMP_temperature;BMP_pressure;BME280_temperature;BME280_humidity;BME280_pressure;Samples;Min_cycle;Max_cycle;Signal;HPM_P1;HPM_P2
2022/11/13 00:00:50;;;;;;;16.60;14.75;;;;;;;5.54;100.00;96543.16;5060929;28;20037;-61
2022/11/13 00:03:16;;;;;;;21.45;14.75;;;;;;;5.51;100.00;96543.34;5058183;28;20040;-61
2022/11/13 00:05:42;;;;;;;18.65;15.32;;;;;;;5.47;100.00;96534.03;5050661;28;20042;-62
2022/11/13 00:08:08;;;;;;;17.92;14.63;;;;;;;5.39;100.00;96526.63;5050520;28;20086;-62
2022/11/13 00:10:33;;;;;;;18.27;14.70;;;;;;;5.34;100.00;96526.06;5054891;28;20034;-68
2022/11/13 00:12:58;;;;;;;16.15;13.70;;;;;;;5.28;100.00;96515.00;5044072;28;20060;-55
2022/11/13 00:15:24;;;;;;;16.60;12.82;;;;;;;5.24;100.00;96525.75;5065040;28;20036;-56
2022/11/13 00:17:49;;;;;;;16.70;12.90;;;;;;;5.19;100.00;96526.00;5053637;28;20068;-58
2022/11/13 00:20:15;;;;;;;18.13;13.63;;;;;;;5.13;100.00;96521.97;5036440;28;20034;-56
2022/11/13 00:22:41;;;;;;;18.10;14.32;;;;;;;5.10;100.00;96526.53;5059732;28;20047;-57
2022/11/13 00:25:06;;;;;;;16.75;14.00;;;;;;;5.03;100.00;96531.25;5062576;28;20025;-56
2022/11/13 00:27:32;;;;;;;15.93;12.82;;;;;;;5.01;100.00;96523.50;5044755;28;20414;-57
2022/11/13 00:29:57;;;;;;;11.93;10.07;;;;;;;4.99;100.00;96524.53;5062114;28;20193;-64
2022/11/13 00:32:23;;;;;;;11.73;9.80;;;;;;;4.99;100.00;96517.53;5062070;28;20021;-59
2022/11/13 00:34:48;;;;;;;14.02;11.38;;;;;;;4.98;100.00;96510.63;5047698;28;20119;-64
2022/11/13 00:37:13;;;;;;;15.60;10.98;;;;;;;4.98;100.00;96518.47;5046107;28;20021;-64
2022/11/13 00:39:39;;;;;;;13.30;11.80;;;;;;;4.92;100.00;96515.34;5061012;28;20029;-63
2022/11/13 00:42:04;;;;;;;13.52;11.05;;;;;;;4.87;100.00;96508.63;5062934;28;20032;-64
2022/11/13 00:44:30;;;;;;;18.45;10.60;;;;;;;4.80;100.00;96515.13;5051669;28;20029;-63
2022/11/13 00:46:55;;;;;;;12.75;10.30;;;;;;;4.75;100.00;96518.91;5062332;28;20592;-63
2022/11/13 00:49:21;;;;;;;14.55;10.43;;;;;;;4.75;100.00;96522.34;5027010;28;20038;-55
2022/11/13 00:51:46;;;;;;;18.92;10.48;;;;;;;4.74;100.00;96528.50;5055643;28;20119;-61
2022/11/13 00:54:11;;;;;;;11.73;10.52;;;;;;;4.73;100.00;96519.00;5068802;28;20089;-61
2022/11/13 00:56:37;;;;;;;14.35;10.65;;;;;;;4.64;100.00;96517.75;5068026;28;20044;-62
2022/11/13 00:59:02;;;;;;;12.00;10.50;;;;;;;4.57;100.00;96519.88;5070623;28;20036;-61
2022/11/13 01:01:28;;;;;;;12.93;10.82;;;;;;;4.57;100.00;96511.19;5072919;28;20486;-61
2022/11/13 01:03:53;;;;;;;15.60;10.23;;;;;;;4.55;100.00;96505.22;5067582;28;20485;-61
2022/11/13 01:06:24;;;;;;;16.35;10.98;;;;;;;4.47;100.00;96508.22;5071634;28;20025;-61
2022/11/13 01:08:52;;;;;;;12.68;11.25;;;;;;;4.46;100.00;96511.78;5068336;28;20029;-68
2022/11/13 01:11:20;;;;;;;20.95;14.15;;;;;;;4.42;100.00;96505.03;5070400;28;20036;-63
2022/11/13 01:13:48;;;;;;;23.58;15.88;;;;;;;4.36;100.00;96502.78;5068011;28;20032;-67
2022/11/13 01:16:16;;;;;;;14.88;13.30;;;;;;;4.32;100.00;96502.09;5068700;28;20029;-67
2022/11/13 01:18:41;;;;;;;19.70;14.80;;;;;;;4.30;100.00;96494.34;5071049;28;20037;-67
2022/11/13 01:21:18;;;;;;;22.33;17.65;;;;;;;4.32;100.00;96503.88;5079188;28;20031;-68
2022/11/13 01:23:43;;;;;;;20.63;16.88;;;;;;;4.25;100.00;96493.75;5072900;28;20036;-67
2022/11/13 01:26:18;;;;;;;19.23;15.10;;;;;;;4.19;100.00;96496.72;5058618;28;20028;-67
2022/11/13 01:28:44;;;;;;;19.17;14.93;;;;;;;4.15;100.00;96490.81;5070976;28;20033;-68
2022/11/13 01:31:12;;;;;;;18.45;14.02;;;;;;;4.13;100.00;96489.22;5066572;28;20047;-66
2022/11/13 01:33:38;;;;;;;17.50;13.68;;;;;;;4.09;100.00;96480.72;5070022;28;20047;-68
2022/11/13 01:36:07;;;;;;;13.50;11.90;;;;;;;4.08;100.00;96481.66;5076889;28;20028;-66
2022/11/13 01:38:32;;;;;;;12.68;10.48;;;;;;;4.09;100.00;96488.53;5071284;28;20040;-67
2022/11/13 01:40:58;;;;;;;13.23;9.55;;;;;;;4.06;100.00;96469.63;5072352;28;20389;-67
2022/11/13 01:43:26;;;;;;;14.18;10.00;;;;;;;4.04;100.00;96464.50;5057821;28;20110;-67
2022/11/13 01:45:58;;;;;;;15.40;9.90;;;;;;;4.01;100.00;96468.09;5069499;28;20036;-67
2022/11/13 01:48:38;;;;;;;9.27;8.38;;;;;;;3.99;100.00;96462.13;5068849;28;20407;-57
2022/11/13 01:51:10;;;;;;;9.27;8.30;;;;;;;4.00;100.00;96469.03;5070753;28;20048;-63
2022/11/13 01:53:36;;;;;;;12.60;8.07;;;;;;;3.98;100.00;96457.84;5070610;28;20071;-63
2022/11/13 01:56:01;;;;;;;9.48;8.32;;;;;;;3.93;100.00;96454.66;5070893;28;20056;-63
2022/11/13 01:58:27;;;;;;;9.55;8.63;;;;;;;3.94;100.00;96458.94;5072029;28;20043;-63
2022/11/13 02:00:52;;;;;;;10.02;9.02;;;;;;;3.96;100.00;96451.03;5072056;28;20570;-63
2022/11/13 02:03:17;;;;;;;9.75;8.55;;;;;;;3.91;100.00;96453.91;5073126;28;20036;-63
2022/11/13 02:05:43;;;;;;;11.98;9.07;;;;;;;3.92;100.00;96459.94;5075570;28;20086;-64
2022/11/13 02:08:08;;;;;;;9.48;8.05;;;;;;;3.93;100.00;96456.41;5076157;28;20020;-61
2022/11/13 02:10:34;;;;;;;10.02;7.38;;;;;;;3.90;100.00;96448.75;5072008;28;20033;-56
2022/11/13 02:12:59;;;;;;;10.35;8.60;;;;;;;3.85;100.00;96441.19;5069525;28;20066;-55
2022/11/13 02:15:27;;;;;;;10.05;8.82;;;;;;;3.86;100.00;96437.66;5087401;28;20497;-57
2022/11/13 02:17:57;;;;;;;12.65;7.88;;;;;;;3.85;100.00;96428.16;5071811;28;20082;-57
2022/11/13 02:20:39;;;;;;;9.35;7.55;;;;;;;3.89;100.00;96426.22;5071618;28;20040;-55
2022/11/13 02:23:40;;;;;;;10.23;7.38;;;;;;;3.90;100.00;96431.38;5070274;28;20028;-57
2022/11/13 02:26:07;;;;;;;9.27;8.32;;;;;;;3.94;100.00;96422.47;5070527;28;20029;-63
2022/11/13 02:28:33;;;;;;;8.90;7.97;;;;;;;3.95;100.00;96426.75;5070628;28;20194;-57
2022/11/13 02:31:06;;;;;;;10.52;9.15;;;;;;;3.97;100.00;96417.09;5071612;28;20936;-59
2022/11/13 02:33:32;;;;;;;12.88;8.52;;;;;;;4.01;100.00;96417.75;5071725;28;20051;-59
2022/11/13 02:35:58;;;;;;;8.85;7.68;;;;;;;4.00;100.00;96411.69;5072898;28;20493;-59
2022/11/13 02:38:23;;;;;;;9.75;8.75;;;;;;;4.05;100.00;96408.84;5068136;28;20033;-59
2022/11/13 02:40:49;;;;;;;10.32;8.82;;;;;;;4.07;100.00;96403.53;5070924;28;20067;-60
2022/11/13 02:43:14;;;;;;;11.00;8.43;;;;;;;4.11;100.00;96398.09;5070225;28;20042;-59
2022/11/13 02:45:40;;;;;;;8.98;8.05;;;;;;;4.22;100.00;96399.28;5070167;28;20044;-67
2022/11/13 02:48:06;;;;;;;10.70;6.82;;;;;;;4.20;100.00;96396.72;5071809;28;20138;-59
2022/11/13 02:50:32;;;;;;;8.93;6.53;;;;;;;4.21;100.00;96393.19;5074077;28;20092;-68
2022/11/13 02:52:58;;;;;;;6.55;5.93;;;;;;;4.25;100.00;96389.50;5069956;28;20043;-68
2022/11/13 02:55:23;;;;;;;6.55;5.80;;;;;;;4.29;100.00;96375.34;5070000;28;20024;-68
2022/11/13 02:57:49;;;;;;;7.95;5.85;;;;;;;4.33;100.00;96373.44;5074218;28;20085;-68
2022/11/13 03:00:14;;;;;;;6.95;6.32;;;;;;;4.37;100.00;96376.72;5071349;28;20032;-68
2022/11/13 03:02:40;;;;;;;7.28;6.57;;;;;;;4.36;100.00;96375.84;5073434;28;20085;-68
2022/11/13 03:05:06;;;;;;;6.65;5.97;;;;;;;4.35;100.00;96381.16;5069023;28;20032;-66
2022/11/13 03:07:31;;;;;;;7.45;6.28;;;;;;;4.35;100.00;96384.59;5071940;28;20028;-68
2022/11/13 03:09:56;;;;;;;8.30;6.82;;;;;;;4.39;100.00;96377.47;5074684;28;20024;-68
2022/11/13 03:12:22;;;;;;;7.68;6.40;;;;;;;4.40;100.00;96379.97;5075166;28;20024;-68
2022/11/13 03:14:47;;;;;;;7.18;6.47;;;;;;;4.44;100.00;96375.44;5074985;28;20105;-69
2022/11/13 03:17:13;;;;;;;7.57;6.88;;;;;;;4.47;100.00;96370.03;5071220;28;20064;-67
2022/11/13 03:19:38;;;;;;;6.93;6.32;;;;;;;4.49;100.00;96372.56;5074299;28;20028;-68
2022/11/13 03:22:04;;;;;;;10.15;7.53;;;;;;;4.54;100.00;96373.13;5069938;28;20040;-68
2022/11/13 03:24:29;;;;;;;7.32;6.57;;;;;;;4.58;100.00;96370.28;5069894;28;20236;-59
2022/11/13 03:26:54;;;;;;;7.65;6.82;;;;;;;4.62;100.00;96368.31;5076370;28;20082;-67
2022/11/13 03:29:20;;;;;;;7.03;6.40;;;;;;;4.64;100.00;96363.88;5070476;28;20032;-67
2022/11/13 03:31:45;;;;;;;11.35;6.43;;;;;;;4.67;100.00;96368.91;5070551;28;20482;-67
2022/11/13 03:34:10;;;;;;;6.68;6.00;;;;;;;4.70;100.00;96365.25;5068429;28;20029;-67
2022/11/13 03:36:36;;;;;;;6.55;5.95;;;;;;;4.70;100.00;96360.91;5077040;28;20093;-67
2022/11/13 03:39:01;;;;;;;6.00;5.43;;;;;;;4.71;100.00;96365.19;5071400;28;20031;-67
2022/11/13 03:41:27;;;;;;;5.38;4.88;;;;;;;4.71;100.00;96364.31;5068930;28;20039;-67
2022/11/13 03:43:52;;;;;;;5.95;5.32;;;;;;;4.70;100.00;96358.28;5068442;28;20063;-68
2022/11/13 03:46:17;;;;;;;8.00;5.80;;;;;;;4.70;100.00;96360.03;5072435;28;20074;-63
2022/11/13 03:48:43;;;;;;;8.70;5.22;;;;;;;4.72;100.00;96366.00;5069954;28;20040;-63
2022/11/13 03:51:08;;;;;;;5.43;4.93;;;;;;;4.74;100.00;96366.75;5073339;28;20074;-63
2022/11/13 03:53:33;;;;;;;6.20;5.60;;;;;;;4.74;100.00;96353.72;5070101;28;20063;-63
2022/11/13 03:55:59;;;;;;;5.90;5.32;;;;;;;4.72;100.00;96355.56;5071457;28;20028;-63
2022/11/13 03:58:24;;;;;;;8.95;5.57;;;;;;;4.76;100.00;96356.25;5071771;28;20036;-63
2022/11/13 04:00:52;;;;;;;5.55;4.72;;;;;;;4.80;100.00;96349.91;5072015;28;20036;-63
2022/11/13 04:03:17;;;;;;;8.18;4.88;;;;;;;4.83;100.00;96339.28;5070504;28;20044;-59
2022/11/13 04:05:42;;;;;;;5.05;4.65;;;;;;;4.85;100.00;96340.03;5070078;28;20037;-59
2022/11/13 04:08:08;;;;;;;4.30;4.00;;;;;;;4.85;100.00;96346.09;5070265;28;20037;-59
2022/11/13 04:10:34;;;;;;;8.18;4.90;;;;;;;4.84;100.00;96339.22;5071957;28;20059;-60
2022/11/13 04:13:00;;;;;;;7.05;4.88;;;;;;;4.85;100.00;96335.66;5068693;28;20026;-59
2022/11/13 04:15:25;;;;;;;4.43;4.05;;;;;;;4.86;100.00;96336.50;5068568;28;20033;-60
2022/11/13 04:17:51;;;;;;;5.60;4.72;;;;;;;4.84;100.00;96343.56;5070124;28;20025;-59
2022/11/13 04:20:16;;;;;;;4.82;4.43;;;;;;;4.82;100.00;96338.47;5070689;28;20028;-59
2022/11/13 04:22:42;;;;;;;5.13;4.63;;;;;;;4.82;100.00;96328.03;5072198;28;20191;-64
2022/11/13 04:25:08;;;;;;;5.07;4.47;;;;;;;4.85;100.00;96327.00;5069098;28;20044;-59
2022/11/13 04:27:34;;;;;;;8.13;5.20;;;;;;;4.84;100.00;96322.72;5070987;28;20089;-59
2022/11/13 04:29:59;;;;;;;7.07;4.70;;;;;;;4.85;100.00;96325.25;5072690;28;20037;-59
2022/11/13 04:32:24;;;;;;;8.70;4.78;;;;;;;4.86;100.00;96318.22;5052198;28;20109;-59
2022/11/13 04:34:50;;;;;;;7.97;4.80;;;;;;;4.90;100.00;96317.16;5069035;28;20067;-59
2022/11/13 04:37:15;;;;;;;7.68;5.03;;;;;;;4.91;100.00;96312.75;5068788;28;20032;-59
2022/11/13 04:39:40;;;;;;;8.05;4.32;;;;;;;4.89;100.00;96320.69;5069094;28;20044;-59
2022/11/13 04:44:52;;;;;;;5.35;4.88;;;;;;;4.91;100.00;96310.13;5067295;28;20043;-64
2022/11/13 04:47:19;;;;;;;6.40;5.22;;;;;;;4.90;100.00;96309.31;5070805;28;20028;-63
2022/11/13 04:49:44;;;;;;;10.02;5.13;;;;;;;4.87;100.00;96301.69;5068950;28;20032;-63
2022/11/13 04:52:09;;;;;;;6.72;5.53;;;;;;;4.88;100.00;96298.97;5071735;28;20098;-63
2022/11/13 04:54:35;;;;;;;6.18;5.57;;;;;;;4.88;100.00;96291.13;5069143;28;20512;-64
2022/11/13 04:57:00;;;;;;;7.55;4.60;;;;;;;4.87;100.00;96293.84;5072678;28;20082;-63
2022/11/13 04:59:25;;;;;;;8.60;5.60;;;;;;;4.84;100.00;96281.81;5072138;28;20037;-67
2022/11/13 05:01:51;;;;;;;5.72;5.18;;;;;;;4.86;100.00;96282.56;5071824;28;20043;-66
2022/11/13 05:04:16;;;;;;;6.88;4.70;;;;;;;4.85;100.00;96282.63;5071873;28;20055;-67
2022/11/13 05:06:42;;;;;;;7.03;5.20;;;;;;;4.86;100.00;96279.09;5071967;28;20029;-66
2022/11/13 05:09:07;;;;;;;5.82;5.32;;;;;;;4.86;100.00;96286.91;5071955;28;20049;-67
2022/11/13 05:11:33;;;;;;;7.70;4.47;;;;;;;4.85;100.00;96272.19;5072055;28;20454;-66
2022/11/13 05:13:58;;;;;;;5.32;4.82;;;;;;;4.83;100.00;96274.91;5071684;28;20033;-66
2022/11/13 05:16:24;;;;;;;7.63;5.00;;;;;;;4.80;100.00;96274.25;5072757;28;20067;-66
2022/11/13 05:18:49;;;;;;;12.43;5.65;;;;;;;4.76;100.00;96268.41;5072106;28;20090;-60
2022/11/13 05:21:15;;;;;;;8.95;6.45;;;;;;;4.69;100.00;96257.50;5071583;28;20028;-66
2022/11/13 05:23:40;;;;;;;7.20;5.70;;;;;;;4.65;100.00;96256.00;5072355;28;20406;-66
2022/11/13 05:26:08;;;;;;;5.63;5.10;;;;;;;4.63;100.00;96257.84;5071220;28;20028;-67
2022/11/13 05:28:35;;;;;;;6.20;5.60;;;;;;;4.62;100.00;96263.16;5071836;28;20524;-67
2022/11/13 05:31:26;;;;;;;6.05;4.88;;;;;;;4.59;100.00;96251.97;5071114;28;20032;-67
2022/11/13 05:33:52;;;;;;;6.82;5.57;;;;;;;4.59;100.00;96246.75;5067834;28;20032;-67
2022/11/13 05:36:19;;;;;;;5.20;4.80;;;;;;;4.65;100.00;96250.78;5070968;28;20024;-67
2022/11/13 05:38:44;;;;;;;7.70;4.75;;;;;;;4.63;100.00;96254.41;5071366;28;20118;-56
2022/11/13 05:41:15;;;;;;;6.18;4.90;;;;;;;4.61;100.00;96253.66;5071488;28;20075;-61
2022/11/13 05:43:41;;;;;;;5.35;4.90;;;;;;;4.59;100.00;96253.72;5071421;28;20032;-64
2022/11/13 05:46:28;;;;;;;6.60;5.03;;;;;;;4.59;100.00;96257.19;5071003;28;20021;-64
2022/11/13 05:48:56;;;;;;;9.50;5.07;;;;;;;4.59;100.00;96259.81;5069855;28;20069;-63
2022/11/13 05:51:25;;;;;;;6.20;5.60;;;;;;;4.68;100.00;96266.25;5071125;28;20044;-63
2022/11/13 05:53:51;;;;;;;8.73;5.65;;;;;;;4.77;100.00;96264.84;5071944;28;20068;-63
2022/11/13 05:56:23;;;;;;;8.70;5.03;;;;;;;4.77;100.00;96267.47;5070909;28;20461;-63
2022/11/13 05:58:50;;;;;;;5.82;5.32;;;;;;;4.81;100.00;96268.97;5069600;28;20115;-59
2022/11/13 06:01:19;;;;;;;9.15;5.80;;;;;;;4.80;100.00;96275.09;5069535;28;20040;-66
2022/11/13 06:03:45;;;;;;;6.05;5.47;;;;;;;4.76;100.00;96255.34;5069565;28;20040;-59
2022/11/13 06:06:14;;;;;;;5.20;4.78;;;;;;;4.75;100.00;96256.25;5070720;28;20513;-59
2022/11/13 06:08:40;;;;;;;6.57;5.15;;;;;;;4.73;100.00;96247.69;5070424;28;20032;-59
2022/11/13 06:11:11;;;;;;;5.70;5.20;;;;;;;4.70;100.00;96247.88;5070865;28;20517;-59
2022/11/13 06:13:38;;;;;;;5.97;4.95;;;;;;;4.68;100.00;96244.53;5070378;28;20040;-60
2022/11/13 06:16:09;;;;;;;5.95;4.93;;;;;;;4.66;100.00;96247.25;5070510;28;20413;-59
2022/11/13 06:18:35;;;;;;;5.15;4.72;;;;;;;4.66;100.00;96249.00;5070705;28;20048;-61
2022/11/13 06:21:03;;;;;;;7.40;5.80;;;;;;;4.66;100.00;96259.44;5070465;28;20056;-67
2022/11/13 06:23:32;;;;;;;10.48;5.75;;;;;;;4.71;100.00;96263.44;5069761;28;20092;-61
2022/11/13 06:26:02;;;;;;;5.93;5.43;;;;;;;4.76;100.00;96263.19;5069523;28;20494;-61
2022/11/13 06:28:28;;;;;;;5.97;5.38;;;;;;;4.78;100.00;96261.31;5071245;28;20450;-61
2022/11/13 06:30:53;;;;;;;9.85;6.45;;;;;;;4.78;100.00;96263.06;5070433;28;20118;-61
2022/11/13 06:33:19;;;;;;;7.65;4.85;;;;;;;4.76;100.00;96257.97;5070478;28;20028;-61
2022/11/13 06:35:44;;;;;;;6.10;5.57;;;;;;;4.76;100.00;96249.28;5068023;28;20610;-61
2022/11/13 06:38:09;;;;;;;7.57;5.93;;;;;;;4.77;100.00;96245.75;5069592;28;20033;-67
2022/11/13 06:40:37;;;;;;;6.50;5.90;;;;;;;4.78;100.00;96237.84;5070288;28;20108;-67
2022/11/13 06:43:03;;;;;;;7.38;5.80;;;;;;;4.81;100.00;96231.56;5070827;28;20036;-66
2022/11/13 06:45:28;;;;;;;6.28;5.65;;;;;;;4.84;100.00;96229.63;5070097;28;20087;-67
2022/11/13 06:47:54;;;;;;;7.40;5.57;;;;;;;4.87;100.00;96228.63;5069655;28;20060;-67
2022/11/13 06:50:19;;;;;;;6.00;5.40;;;;;;;4.89;100.00;96229.34;5048087;28;20498;-66
2022/11/13 06:52:44;;;;;;;6.20;5.60;;;;;;;4.92;100.00;96234.38;5069488;28;20024;-67
2022/11/13 06:55:10;;;;;;;5.78;5.28;;;;;;;4.94;100.00;96239.50;5069600;28;20375;-67
2022/11/13 06:57:35;;;;;;;6.53;5.78;;;;;;;4.93;100.00;96240.44;5069946;28;20521;-59
2022/11/13 07:00:00;;;;;;;8.50;5.50;;;;;;;4.93;100.00;96237.81;5070273;28;20039;-63
2022/11/13 07:02:26;;;;;;;6.50;6.00;;;;;;;4.93;100.00;96236.06;5066232;28;20040;-63
2022/11/13 07:04:51;;;;;;;7.82;5.72;;;;;;;4.98;100.00;96233.19;5068787;28;20047;-63
2022/11/13 07:07:16;;;;;;;12.82;6.43;;;;;;;5.03;100.00;96241.56;5069173;28;20032;-63
2022/11/13 07:09:42;;;;;;;7.38;6.68;;;;;;;5.04;100.00;96230.19;5068427;28;20028;-64
2022/11/13 07:12:07;;;;;;;6.80;6.20;;;;;;;5.05;100.00;96231.00;5069000;28;20036;-64
2022/11/13 07:14:32;;;;;;;9.23;7.28;;;;;;;5.07;100.00;96230.00;5069489;28;20040;-63
2022/11/13 07:16:58;;;;;;;7.93;7.15;;;;;;;5.08;100.00;96231.66;5068411;28;20032;-66
2022/11/13 07:19:23;;;;;;;9.73;6.50;;;;;;;5.14;100.00;96230.47;5068447;28;20123;-61
2022/11/13 07:21:48;;;;;;;7.68;7.00;;;;;;;5.16;100.00;96231.19;5068806;28;20060;-62
2022/11/13 07:24:14;;;;;;;8.00;7.20;;;;;;;5.19;100.00;96231.00;5069429;28;20089;-61
2022/11/13 07:26:39;;;;;;;9.20;8.30;;;;;;;5.21;100.00;96230.94;5067708;28;20029;-63
2022/11/13 07:29:04;;;;;;;8.90;8.05;;;;;;;5.21;100.00;96229.13;5069425;28;20530;-62
2022/11/13 07:31:30;;;;;;;19.63;8.40;;;;;;;5.22;100.00;96232.59;5068879;28;20504;-62
2022/11/13 07:33:55;;;;;;;10.13;9.15;;;;;;;5.26;100.00;96221.84;5069380;28;20106;-62
2022/11/13 07:36:20;;;;;;;10.63;9.18;;;;;;;5.35;100.00;96223.03;5069240;28;20107;-58
2022/11/13 07:38:46;;;;;;;9.38;8.43;;;;;;;5.40;100.00;96222.75;5068699;28;20116;-62
2022/11/13 07:41:11;;;;;;;7.38;6.68;;;;;;;5.44;100.00;96217.25;5068395;28;20063;-63
2022/11/13 07:43:36;;;;;;;10.77;7.07;;;;;;;5.49;100.00;96219.56;5068835;28;20056;-63
2022/11/13 07:46:02;;;;;;;7.78;6.43;;;;;;;5.53;100.00;96205.38;5068857;28;20111;-63
2022/11/13 07:48:28;;;;;;;7.22;6.63;;;;;;;5.55;100.00;96213.97;5069431;28;20032;-64
2022/11/13 07:50:53;;;;;;;10.48;7.35;;;;;;;5.58;100.00;96210.31;5068182;28;20040;-64
2022/11/13 07:53:20;;;;;;;7.68;6.90;;;;;;;5.61;100.00;96211.88;5069272;28;20045;-63
2022/11/13 07:55:46;;;;;;;7.53;6.72;;;;;;;5.61;100.00;96211.88;5067993;28;20032;-57
2022/11/13 07:58:12;;;;;;;8.73;7.50;;;;;;;5.63;100.00;96215.25;5069501;28;20125;-60
2022/11/13 08:00:38;;;;;;;7.30;6.70;;;;;;;5.64;100.00;96223.00;5069372;28;20063;-59
2022/11/13 08:03:09;;;;;;;9.88;7.70;;;;;;;5.69;100.00;96220.06;5069329;28;20448;-60
2022/11/13 08:05:35;;;;;;;8.38;7.68;;;;;;;5.72;100.00;96209.41;5066676;28;20047;-59
2022/11/13 08:08:01;;;;;;;9.80;8.80;;;;;;;5.77;100.00;96216.97;5067896;28;20036;-60
2022/11/13 08:10:26;;;;;;;12.13;10.90;;;;;;;5.77;100.00;96209.13;5068035;28;20047;-58
2022/11/13 08:13:07;;;;;;;11.15;10.05;;;;;;;5.77;100.00;96209.97;5066193;28;20041;-58
2022/11/13 08:15:33;;;;;;;8.15;7.32;;;;;;;5.78;100.00;96202.94;5063715;28;20044;-66
2022/11/13 08:18:00;;;;;;;12.15;8.13;;;;;;;5.77;100.00;96209.13;5066359;28;20044;-67
2022/11/13 08:20:30;;;;;;;9.35;8.38;;;;;;;5.78;100.00;96202.94;5067161;28;20071;-68
2022/11/13 08:22:58;;;;;;;8.95;7.70;;;;;;;5.80;100.00;96201.94;5067798;28;20043;-68
2022/11/13 08:25:23;;;;;;;9.70;7.60;;;;;;;5.83;100.00;96200.88;5068008;28;20029;-71
2022/11/13 08:27:51;;;;;;;16.88;9.13;;;;;;;5.90;100.00;96199.56;5068196;28;20402;-65
2022/11/13 08:30:18;;;;;;;15.98;11.45;;;;;;;5.92;100.00;96209.88;5068344;28;20047;-66
2022/11/13 08:32:43;;;;;;;12.95;11.65;;;;;;;5.94;100.00;96203.63;5068629;28;20033;-66
2022/11/13 08:35:09;;;;;;;12.13;10.68;;;;;;;5.95;100.00;96200.09;5068965;28;20039;-67
2022/11/13 08:37:34;;;;;;;11.68;10.40;;;;;;;5.98;100.00;96199.06;5068765;28;20051;-62
2022/11/13 08:39:59;;;;;;;11.52;10.32;;;;;;;5.99;100.00;96193.72;5064677;28;20517;-62
2022/11/13 08:42:25;;;;;;;12.55;11.40;;;;;;;6.03;100.00;96191.78;5056794;28;20119;-61
2022/11/13 08:44:50;;;;;;;13.32;11.52;;;;;;;6.06;100.00;96190.72;5059667;28;20031;-60
2022/11/13 08:47:15;;;;;;;14.93;12.45;;;;;;;6.08;100.00;96191.44;5064121;28;20520;-61
2022/11/13 08:49:41;;;;;;;13.30;11.88;;;;;;;6.11;100.00;96194.69;5063533;28;20486;-62
2022/11/13 08:52:06;;;;;;;13.82;11.57;;;;;;;6.21;100.00;96199.34;5064391;28;20045;-63
2022/11/13 08:54:32;;;;;;;14.40;12.57;;;;;;;6.24;100.00;96202.56;5062491;28;20040;-60
2022/11/13 08:56:57;;;;;;;14.80;13.32;;;;;;;6.26;100.00;96200.69;5049033;28;20068;-60
2022/11/13 08:59:22;;;;;;;12.50;11.30;;;;;;;6.26;100.00;96199.84;5067966;28;20402;-60
2022/11/13 09:01:48;;;;;;;12.73;11.43;;;;;;;6.25;100.00;96198.19;5068268;28;20107;-60
2022/11/13 09:04:14;;;;;;;16.15;11.75;;;;;;;6.24;100.00;96197.34;5067932;28;20037;-59
2022/11/13 09:06:39;;;;;;;15.68;13.50;;;;;;;6.27;100.00;96199.75;5068822;28;20029;-62
2022/11/13 09:09:05;;;;;;;26.27;19.20;;;;;;;6.30;100.00;96198.72;5066830;28;20036;-61
2022/11/13 09:11:31;;;;;;;25.92;18.90;;;;;;;6.29;100.00;96205.69;5068255;28;20036;-62
2022/11/13 09:13:56;;;;;;;23.60;18.63;;;;;;;6.33;100.00;96205.53;5067637;28;20086;-62
2022/11/13 09:16:22;;;;;;;29.77;22.67;;;;;;;6.37;100.00;96207.81;5068182;28;20042;-62
2022/11/13 09:18:51;;;;;;;31.00;21.05;;;;;;;6.35;100.00;96207.06;5066993;28;20056;-62
2022/11/13 09:21:16;;;;;;;30.70;22.00;;;;;;;6.38;100.00;96206.03;5061745;28;20116;-61
2022/11/13 09:23:42;;;;;;;29.08;22.88;;;;;;;6.39;100.00;96205.94;5048478;28;20121;-61
2022/11/13 09:26:07;;;;;;;32.05;27.88;;;;;;;6.48;100.00;96198.41;5067878;28;20525;-61
2022/11/13 09:28:33;;;;;;;26.88;22.52;;;;;;;6.49;100.00;96202.72;5068017;28;20060;-62
2022/11/13 09:30:58;;;;;;;25.88;22.20;;;;;;;6.48;100.00;96207.09;5067770;28;20039;-61
2022/11/13 09:33:23;;;;;;;24.42;21.83;;;;;;;6.49;100.00;96206.13;5067047;28;20051;-59
2022/11/13 09:35:49;;;;;;;25.75;22.50;;;;;;;6.50;100.00;96207.00;5067339;28;20490;-68
2022/11/13 09:38:14;;;;;;;27.02;23.45;;;;;;;6.57;100.00;96195.16;5069025;28;20028;-68
2022/11/13 09:41:16;;;;;;;24.70;22.02;;;;;;;6.61;100.00;96203.66;5071005;28;20035;-68
2022/11/13 09:43:47;;;;;;;22.73;20.33;;;;;;;6.57;100.00;96203.84;5062081;28;20044;-68
2022/11/13 09:46:33;;;;;;;23.27;20.35;;;;;;;6.66;100.00;96215.47;5065150;28;20032;-68
2022/11/13 09:49:25;;;;;;;24.52;19.65;;;;;;;6.63;100.00;96218.31;5070609;28;20527;-68
2022/11/13 09:51:56;;;;;;;23.63;21.08;;;;;;;6.62;100.00;96213.16;5070535;28;20451;-62
2022/11/13 09:54:22;;;;;;;24.67;21.38;;;;;;;6.64;100.00;96206.06;5070686;28;20024;-53
2022/11/13 09:57:34;;;;;;;26.65;22.50;;;;;;;6.65;100.00;96200.72;5071219;28;20107;-61
2022/11/13 10:00:25;;;;;;;28.17;23.52;;;;;;;6.72;100.00;96198.50;5070509;28;20123;-61
2022/11/13 10:03:28;;;;;;;27.50;23.60;;;;;;;6.81;100.00;96208.34;5069223;28;20040;-62
2022/11/13 10:06:09;;;;;;;30.30;25.80;;;;;;;6.88;100.00;96206.97;5053853;28;20040;-62
2022/11/13 10:09:35;;;;;;;26.98;23.75;;;;;;;6.93;100.00;96214.53;5070430;28;20043;-61
2022/11/13 10:12:07;;;;;;;28.77;24.45;;;;;;;6.99;100.00;96200.16;4986515;28;20433;-57
2022/11/13 10:14:44;;;;;;;34.13;26.38;;;;;;;7.03;100.00;96199.00;5070695;28;20047;-62
2022/11/13 10:17:38;;;;;;;34.97;26.38;;;;;;;7.12;100.00;96208.81;5069201;28;20040;-62
2022/11/13 10:20:14;;;;;;;32.75;26.40;;;;;;;7.21;100.00;96201.28;5069935;28;20090;-61
2022/11/13 10:22:47;;;;;;;33.88;27.92;;;;;;;7.28;100.00;96189.41;5052561;28;20484;-62
2022/11/13 10:25:17;;;;;;;29.83;26.52;;;;;;;7.29;100.00;96185.84;5070739;28;20035;-62
2022/11/13 10:27:52;;;;;;;29.75;25.27;;;;;;;7.32;100.00;96169.91;5070318;28;20051;-62
2022/11/13 10:30:18;;;;;;;31.63;25.38;;;;;;;7.36;100.00;96167.91;5069973;28;20029;-61
2022/11/13 10:32:44;;;;;;;31.15;24.70;;;;;;;7.42;100.00;96172.72;5070153;28;20094;-63
2022/11/13 10:35:37;;;;;;;34.63;26.48;;;;;;;7.52;100.00;96189.44;5070442;28;20499;-64
2022/11/13 10:38:17;;;;;;;33.65;25.00;;;;;;;7.57;100.00;96182.09;5071527;28;20514;-64
2022/11/13 10:40:42;;;;;;;30.65;25.92;;;;;;;7.70;100.00;96186.41;5070133;28;20032;-64
2022/11/13 10:43:22;;;;;;;30.50;26.80;;;;;;;7.59;100.00;96166.25;5070420;28;20029;-64
2022/11/13 10:45:59;;;;;;;25.55;22.77;;;;;;;7.72;100.00;96147.81;5068435;28;20600;-63
2022/11/13 10:48:28;;;;;;;24.65;22.05;;;;;;;7.66;100.00;96136.03;5065205;28;20466;-62
2022/11/13 10:51:30;;;;;;;24.45;20.85;;;;;;;7.70;100.00;96147.09;5069182;28;20056;-63
2022/11/13 10:53:57;;;;;;;23.38;20.35;;;;;;;7.73;100.00;96147.72;5070024;28;20039;-69
2022/11/13 10:56:30;;;;;;;22.60;20.13;;;;;;;7.81;100.00;96135.81;5067892;28;20111;-69
2022/11/13 10:59:13;;;;;;;27.15;24.25;;;;;;;7.84;100.00;96132.97;5069321;28;20563;-69
2022/11/13 11:01:40;;;;;;;25.45;21.70;;;;;;;7.87;100.00;96138.84;5068541;28;20536;-68
2022/11/13 11:04:11;;;;;;;26.80;21.38;;;;;;;7.92;100.00;96125.41;5069462;28;20033;-68
2022/11/13 11:06:39;;;;;;;25.13;21.27;;;;;;;7.99;100.00;96116.09;5069633;28;20025;-69
2022/11/13 11:09:31;;;;;;;24.13;21.50;;;;;;;8.00;100.00;96119.59;5070050;28;20108;-69
2022/11/13 11:12:15;;;;;;;31.08;22.27;;;;;;;7.99;100.00;96112.66;5065449;28;20087;-67
2022/11/13 11:14:52;;;;;;;25.45;20.27;;;;;;;8.37;100.00;96105.44;5068903;28;20445;-56
2022/11/13 11:17:20;;;;;;;23.63;18.60;;;;;;;8.21;100.00;96096.13;5069736;28;20479;-57
2022/11/13 11:19:54;;;;;;;22.15;18.63;;;;;;;8.20;100.00;96101.50;5069093;28;20075;-56
2022/11/13 11:22:26;;;;;;;19.55;17.48;;;;;;;8.21;100.00;96096.13;5064877;28;20039;-56
2022/11/13 11:25:21;;;;;;;22.00;17.52;;;;;;;8.34;100.00;96103.06;5050877;28;20032;-54
2022/11/13 11:28:02;;;;;;;18.63;16.80;;;;;;;8.48;100.00;96110.69;5067295;28;20040;-62
2022/11/13 11:30:34;;;;;;;16.88;15.23;;;;;;;8.63;100.00;96102.63;5065349;28;20029;-60
2022/11/13 11:33:08;;;;;;;19.20;17.02;;;;;;;8.80;100.00;96101.28;5068893;28;20544;-60
2022/11/13 11:35:44;;;;;;;21.92;19.58;;;;;;;9.02;100.00;96096.00;5068905;28;20046;-61